Terminal Aerodrome Forecast
Issued by NWS

Home | Current Version | Previous Version | Text Only | Print | Product List | Glossary Off
Versions: 1 2 3 4 5 6 7 8 9 10 11 12 13 14 15 16 17 18 19 20 21 22

000
FTUS42 KMHX 091700
TAFISO
TAF
KISO 091740Z 0918/1018 22011G17KT P6SM SCT050
     FM092100 21010G16KT P6SM VCTS BKN040CB
     FM100300 20008KT P6SM SCT050 BKN120
      AMD LTD TO CLD VIS AND WIND=

USA.gov is the U.S. government's official web portal to all federal, state and local government web resources and services.